vendredi 24 janvier 2014

ALERTE SPOTTING 24/01/14

IL9 Cubana CU-T1251
   CU440/CU441  08h50/11h30

AR8 Malmo Aviation
   TF850/TF851 11h40/12h20

319 6V-ONE Republique du Sénégal
   dpt  17h30

320 F-HDMF Air Corsica (cyclistes)
   XK4505/XK4504   19h55/21h00

 Manque les prévisions Air Europa / Flybe / certains Air Algérie
*** Heures en Local Time / prévisions soumises
 à modifications de dernières minutes ***

le TAF de la journée:

 METAR: LFPO 240330Z 28004KT CAVOK 03/01 Q1017 NOSIG=

TAF LONG: LFPO 232300Z 2400/2506 26007KT 9999 SCT030 BKN100 BECMG 2415/2418
16005KT SCT013 BKN060 BECMG 2500/2503 -RA SCT008 BKN025

Les logs des jours précédents :
 http://www.airkalo.com/ORLYAVIATION/Logdumois.html